sensor_id;sensor_type;location;lat;lon;timestamp;pressure;altitude;pressure_sealevel;temperature;humidity
36726;BME280;44936;52.086;5.150;2023-05-22T00:00:28;102145.06;;;15.16;100.00
36726;BME280;44936;52.086;5.150;2023-05-22T00:02:55;102129.16;;;15.07;100.00
36726;BME280;44936;52.086;5.150;2023-05-22T00:05:21;102144.22;;;15.26;100.00
36726;BME280;44936;52.086;5.150;2023-05-22T00:07:46;102137.22;;;15.31;100.00
36726;BME280;44936;52.086;5.150;2023-05-22T00:10:12;102120.47;;;15.32;100.00
36726;BME280;44936;52.086;5.150;2023-05-22T00:12:37;102098.44;;;15.30;100.00
36726;BME280;44936;52.086;5.150;2023-05-22T00:15:03;102074.66;;;15.30;100.00
36726;BME280;44936;52.086;5.150;2023-05-22T00:17:28;102085.22;;;15.36;100.00
36726;BME280;44936;52.086;5.150;2023-05-22T00:19:55;102049.03;;;15.12;100.00
36726;BME280;44936;52.086;5.150;2023-05-22T00:22:20;102085.22;;;15.36;100.00
36726;BME280;44936;52.086;5.150;2023-05-22T00:24:46;102089.66;;;15.43;100.00
36726;BME280;44936;52.086;5.150;2023-05-22T00:27:12;102077.31;;;15.42;100.00
36726;BME280;44936;52.086;5.150;2023-05-22T00:29:38;102057.03;;;15.37;100.00
36726;BME280;44936;52.086;5.150;2023-05-22T00:32:04;102042.06;;;15.33;100.00
36726;BME280;44936;52.086;5.150;2023-05-22T00:34:30;102044.66;;;15.22;100.00
36726;BME280;44936;52.086;5.150;2023-05-22T00:36:55;102055.28;;;15.31;100.00
36726;BME280;44936;52.086;5.150;2023-05-22T00:39:20;102055.28;;;15.33;100.00
36726;BME280;44936;52.086;5.150;2023-05-22T00:41:46;102065.84;;;15.33;100.00
36726;BME280;44936;52.086;5.150;2023-05-22T00:44:11;102045.53;;;15.19;100.00
36726;BME280;44936;52.086;5.150;2023-05-22T00:46:37;102068.47;;;15.26;100.00
36726;BME280;44936;52.086;5.150;2023-05-22T00:49:03;102067.56;;;15.26;100.00
36726;BME280;44936;52.086;5.150;2023-05-22T00:51:28;102065.84;;;15.31;100.00
36726;BME280;44936;52.086;5.150;2023-05-22T00:53:54;102058.78;;;15.30;100.00
36726;BME280;44936;52.086;5.150;2023-05-22T00:56:20;102046.44;;;15.26;100.00
36726;BME280;44936;52.086;5.150;2023-05-22T00:58:49;102057.88;;;15.22;100.00
36726;BME280;44936;52.086;5.150;2023-05-22T01:01:14;102061.41;;;15.21;100.00
36726;BME280;44936;52.086;5.150;2023-05-22T01:03:41;102061.38;;;15.15;100.00
36726;BME280;44936;52.086;5.150;2023-05-22T01:06:16;102066.66;;;15.15;100.00
36726;BME280;44936;52.086;5.150;2023-05-22T01:08:48;102065.75;;;15.07;100.00
36726;BME280;44936;52.086;5.150;2023-05-22T01:11:31;102078.13;;;15.14;100.00
36726;BME280;44936;52.086;5.150;2023-05-22T01:14:05;102053.41;;;15.06;100.00
36726;BME280;44936;52.086;5.150;2023-05-22T01:16:55;102065.78;;;15.13;100.00
36726;BME280;44936;52.086;5.150;2023-05-22T01:19:53;102055.25;;;15.20;100.00
36726;BME280;44936;52.086;5.150;2023-05-22T01:28:10;102027.91;;;15.18;100.00
36726;BME280;44936;52.086;5.150;2023-05-22T01:33:50;102021.75;;;15.21;100.00
36726;BME280;44936;52.086;5.150;2023-05-22T01:36:17;102021.75;;;15.22;100.00
36726;BME280;44936;52.086;5.150;2023-05-22T01:38:44;102027.94;;;15.26;100.00
36726;BME280;44936;52.086;5.150;2023-05-22T01:41:11;102023.56;;;15.29;100.00
36726;BME280;44936;52.086;5.150;2023-05-22T01:43:39;102012.94;;;15.14;100.00
36726;BME280;44936;52.086;5.150;2023-05-22T01:46:05;102020.84;;;15.19;100.00
36726;BME280;44936;52.086;5.150;2023-05-22T01:48:31;102043.75;;;15.17;100.00
36726;BME280;44936;52.086;5.150;2023-05-22T01:51:01;102043.75;;;15.18;100.00
36726;BME280;44936;52.086;5.150;2023-05-22T01:53:48;102048.19;;;15.21;100.00
36726;BME280;44936;52.086;5.150;2023-05-22T01:56:22;102042.00;;;15.16;100.00
36726;BME280;44936;52.086;5.150;2023-05-22T01:59:06;102026.13;;;15.19;100.00
36726;BME280;44936;52.086;5.150;2023-05-22T02:01:35;102006.75;;;15.18;100.00
36726;BME280;44936;52.086;5.150;2023-05-22T02:04:02;101997.06;;;15.13;100.00
36726;BME280;44936;52.086;5.150;2023-05-22T02:06:30;101977.66;;;15.08;100.00
36726;BME280;44936;52.086;5.150;2023-05-22T02:08:58;101982.06;;;15.06;100.00
36726;BME280;44936;52.086;5.150;2023-05-22T02:11:25;101979.44;;;15.09;100.00
36726;BME280;44936;52.086;5.150;2023-05-22T02:13:52;101981.22;;;15.16;100.00
36726;BME280;44936;52.086;5.150;2023-05-22T02:16:18;101983.84;;;15.16;100.00
36726;BME280;44936;52.086;5.150;2023-05-22T02:18:45;101981.22;;;15.16;100.00
36726;BME280;44936;52.086;5.150;2023-05-22T02:21:15;101982.06;;;15.09;100.00
36726;BME280;44936;52.086;5.150;2023-05-22T02:23:42;101978.56;;;15.04;100.00
36726;BME280;44936;52.086;5.150;2023-05-22T02:26:07;101993.53;;;15.09;100.00
36726;BME280;44936;52.086;5.150;2023-05-22T02:28:32;101981.19;;;15.07;100.00
36726;BME280;44936;52.086;5.150;2023-05-22T02:30:58;101958.28;;;14.96;100.00
36726;BME280;44936;52.086;5.150;2023-05-22T02:33:23;101958.31;;;15.06;100.00
36726;BME280;44936;52.086;5.150;2023-05-22T02:35:49;101943.31;;;15.06;100.00
36726;BME280;44936;52.086;5.150;2023-05-22T02:38:14;101916.88;;;14.89;100.00
36726;BME280;44936;52.086;5.150;2023-05-22T02:40:39;101931.00;;;15.04;100.00
36726;BME280;44936;52.086;5.150;2023-05-22T02:43:05;101911.59;;;15.01;100.00
36726;BME280;44936;52.086;5.150;2023-05-22T02:45:31;101893.13;;;14.94;100.00
36726;BME280;44936;52.086;5.150;2023-05-22T02:47:56;101879.00;;;14.92;100.00
36726;BME280;44936;52.086;5.150;2023-05-22T02:50:22;101870.19;;;14.88;100.00
36726;BME280;44936;52.086;5.150;2023-05-22T02:52:47;101855.22;;;14.87;100.00
36726;BME280;44936;52.086;5.150;2023-05-22T02:55:14;101844.66;;;14.87;100.00
36726;BME280;44936;52.086;5.150;2023-05-22T02:57:39;101835.84;;;14.79;100.00
36726;BME280;44936;52.086;5.150;2023-05-22T03:00:05;101682.69;;;14.50;100.00
36726;BME280;44936;52.086;5.150;2023-05-22T03:02:31;101507.56;;;14.59;100.00
36726;BME280;44936;52.086;5.150;2023-05-22T03:04:57;101441.53;;;14.65;100.00
36726;BME280;44936;52.086;5.150;2023-05-22T03:07:25;101412.47;;;14.66;100.00
36726;BME280;44936;52.086;5.150;2023-05-22T03:09:51;101347.41;;;14.61;100.00
36726;BME280;44936;52.086;5.150;2023-05-22T03:12:17;101359.66;;;14.71;100.00
36726;BME280;44936;52.086;5.150;2023-05-22T03:14:43;101349.13;;;14.65;100.00
36726;BME280;44936;52.086;5.150;2023-05-22T03:17:08;101348.28;;;14.58;100.00
36726;BME280;44936;52.086;5.150;2023-05-22T03:19:34;101375.53;;;14.68;100.00
36726;BME280;44936;52.086;5.150;2023-05-22T03:21:59;101382.56;;;14.64;100.00
36726;BME280;44936;52.086;5.150;2023-05-22T03:24:24;101399.28;;;14.63;100.00
36726;BME280;44936;52.086;5.150;2023-05-22T03:26:51;101413.41;;;14.56;100.00
36726;BME280;44936;52.086;5.150;2023-05-22T03:29:16;101417.81;;;14.56;100.00
36726;BME280;44936;52.086;5.150;2023-05-22T03:31:41;101438.94;;;14.59;100.00
36726;BME280;44936;52.086;5.150;2023-05-22T03:34:07;101442.47;;;14.58;100.00
36726;BME280;44936;52.086;5.150;2023-05-22T03:36:32;101445.13;;;14.50;100.00
36726;BME280;44936;52.086;5.150;2023-05-22T03:39:03;101458.28;;;14.58;100.00
36726;BME280;44936;52.086;5.150;2023-05-22T03:41:29;101457.38;;;14.57;100.00
36726;BME280;44936;52.086;5.150;2023-05-22T03:43:55;101437.19;;;14.44;100.00
36726;BME280;44936;52.086;5.150;2023-05-22T03:46:21;101449.53;;;14.50;100.00
36726;BME280;44936;52.086;5.150;2023-05-22T03:48:46;101436.31;;;14.40;100.00
36726;BME280;44936;52.086;5.150;2023-05-22T03:51:12;101453.03;;;14.42;100.00
36726;BME280;44936;52.086;5.150;2023-05-22T03:53:37;101454.78;;;14.39;100.00
36726;BME280;44936;52.086;5.150;2023-05-22T03:56:02;101455.66;;;14.38;100.00
36726;BME280;44936;52.086;5.150;2023-05-22T03:58:28;101463.59;;;14.42;100.00
36726;BME280;44936;52.086;5.150;2023-05-22T04:00:54;101476.78;;;14.44;100.00
36726;BME280;44936;52.086;5.150;2023-05-22T04:03:22;101484.69;;;14.36;100.00
36726;BME280;44936;52.086;5.150;2023-05-22T04:05:48;101485.59;;;14.41;100.00
36726;BME280;44936;52.086;5.150;2023-05-22T04:08:13;101495.25;;;14.38;100.00
36726;BME280;44936;52.086;5.150;2023-05-22T04:10:38;101502.28;;;14.37;100.00
36726;BME280;44936;52.086;5.150;2023-05-22T04:13:04;101516.38;;;14.42;100.00
36726;BME280;44936;52.086;5.150;2023-05-22T04:15:29;101523.41;;;14.34;100.00
36726;BME280;44936;52.086;5.150;2023-05-22T04:17:58;101567.38;;;14.37;100.00
36726;BME280;44936;52.086;5.150;2023-05-22T04:20:24;101582.38;;;14.41;100.00
36726;BME280;44936;52.086;5.150;2023-05-22T04:22:49;101600.84;;;14.45;100.00
36726;BME280;44936;52.086;5.150;2023-05-22T04:25:15;101604.34;;;14.41;100.00
36726;BME280;44936;52.086;5.150;2023-05-22T04:27:41;101624.56;;;14.35;100.00
36726;BME280;44936;52.086;5.150;2023-05-22T04:30:07;101639.53;;;14.34;100.00
36726;BME280;44936;52.086;5.150;2023-05-22T04:32:33;101683.56;;;14.46;100.00
36726;BME280;44936;52.086;5.150;2023-05-22T04:35:00;101709.00;;;14.29;100.00
36726;BME280;44936;52.086;5.150;2023-05-22T04:37:26;101761.00;;;14.50;100.00
36726;BME280;44936;52.086;5.150;2023-05-22T04:39:53;101778.59;;;14.49;100.00
36726;BME280;44936;52.086;5.150;2023-05-22T04:42:22;101798.75;;;14.36;100.00
36726;BME280;44936;52.086;5.150;2023-05-22T04:44:49;101841.06;;;14.45;100.00
36726;BME280;44936;52.086;5.150;2023-05-22T04:47:17;101882.44;;;14.50;100.00
36726;BME280;44936;52.086;5.150;2023-05-22T04:49:43;101908.75;;;14.43;100.00
36726;BME280;44936;52.086;5.150;2023-05-22T04:52:10;101934.31;;;14.48;100.00
36726;BME280;44936;52.086;5.150;2023-05-22T04:54:35;101943.91;;;14.39;100.00
36726;BME280;44936;52.086;5.150;2023-05-22T04:57:01;101973.00;;;14.42;100.00
36726;BME280;44936;52.086;5.150;2023-05-22T04:59:35;101990.63;;;14.45;100.00
36726;BME280;44936;52.086;5.150;2023-05-22T05:02:04;102008.28;;;14.54;100.00
36726;BME280;44936;52.086;5.150;2023-05-22T05:04:30;102017.97;;;14.55;100.00
36726;BME280;44936;52.086;5.150;2023-05-22T05:06:55;102025.00;;;14.53;100.00
36726;BME280;44936;52.086;5.150;2023-05-22T05:09:22;102040.84;;;14.56;100.00
36726;BME280;44936;52.086;5.150;2023-05-22T05:11:47;102046.16;;;14.59;100.00
36726;BME280;44936;52.086;5.150;2023-05-22T05:14:13;102024.13;;;14.51;100.00
36726;BME280;44936;52.086;5.150;2023-05-22T05:16:38;102028.53;;;14.56;100.00
36726;BME280;44936;52.086;5.150;2023-05-22T05:19:04;102039.13;;;14.61;100.00
36726;BME280;44936;52.086;5.150;2023-05-22T05:21:29;102033.00;;;14.72;100.00
36726;BME280;44936;52.086;5.150;2023-05-22T05:23:55;102031.28;;;14.76;100.00
36726;BME280;44936;52.086;5.150;2023-05-22T05:26:20;102021.59;;;14.81;100.00
36726;BME280;44936;52.086;5.150;2023-05-22T05:28:48;102024.28;;;14.84;100.00
36726;BME280;44936;52.086;5.150;2023-05-22T05:31:13;102029.53;;;14.83;100.00
36726;BME280;44936;52.086;5.150;2023-05-22T05:33:38;102036.63;;;14.90;100.00
36726;BME280;44936;52.086;5.150;2023-05-22T05:36:04;102041.91;;;14.91;100.00
36726;BME280;44936;52.086;5.150;2023-05-22T05:38:30;102041.03;;;14.89;100.00
36726;BME280;44936;52.086;5.150;2023-05-22T05:40:55;102064.84;;;14.97;100.00
36726;BME280;44936;52.086;5.150;2023-05-22T05:43:20;102069.28;;;15.10;100.00
36726;BME280;44936;52.086;5.150;2023-05-22T05:45:47;102059.66;;;15.20;100.00
36726;BME280;44936;52.086;5.150;2023-05-22T05:48:12;102035.84;;;15.17;100.00
36726;BME280;44936;52.086;5.150;2023-05-22T05:50:38;102037.63;;;15.21;100.00
36726;BME280;44936;52.086;5.150;2023-05-22T05:53:04;102049.97;;;15.22;100.00
36726;BME280;44936;52.086;5.150;2023-05-22T05:55:30;102049.06;;;15.24;100.00
36726;BME280;44936;52.086;5.150;2023-05-22T05:57:56;102060.56;;;15.31;100.00
36726;BME280;44936;52.086;5.150;2023-05-22T06:00:22;102065.84;;;15.34;100.00
36726;BME280;44936;52.086;5.150;2023-05-22T06:02:47;102089.66;;;15.39;100.00
36726;BME280;44936;52.086;5.150;2023-05-22T06:05:12;102104.63;;;15.43;100.00
36726;BME280;44936;52.086;5.150;2023-05-22T06:07:39;102113.50;;;15.55;100.00
36726;BME280;44936;52.086;5.150;2023-05-22T06:10:05;102106.50;;;15.64;100.00
36726;BME280;44936;52.086;5.150;2023-05-22T06:12:31;102095.94;;;15.65;100.00
36726;BME280;44936;52.086;5.150;2023-05-22T06:14:57;102102.97;;;15.62;100.00
36726;BME280;44936;52.086;5.150;2023-05-22T06:17:22;102127.69;;;15.67;100.00
36726;BME280;44936;52.086;5.150;2023-05-22T06:19:47;102131.22;;;15.75;100.00
36726;BME280;44936;52.086;5.150;2023-05-22T06:22:13;102123.28;;;15.81;100.00
36726;BME280;44936;52.086;5.150;2023-05-22T06:24:38;102129.47;;;15.75;100.00
36726;BME280;44936;52.086;5.150;2023-05-22T06:27:03;102140.03;;;15.89;100.00
36726;BME280;44936;52.086;5.150;2023-05-22T06:29:29;102136.53;;;15.85;100.00
36726;BME280;44936;52.086;5.150;2023-05-22T06:31:55;102134.78;;;15.95;100.00
36726;BME280;44936;52.086;5.150;2023-05-22T06:34:20;102135.66;;;15.97;100.00
36726;BME280;44936;52.086;5.150;2023-05-22T06:36:46;102104.78;;;15.87;100.00
36726;BME280;44936;52.086;5.150;2023-05-22T06:39:14;102146.25;;;16.12;100.00
36726;BME280;44936;52.086;5.150;2023-05-22T06:41:42;102137.44;;;16.09;100.00
36726;BME280;44936;52.086;5.150;2023-05-22T06:44:07;102154.22;;;16.19;100.00
36726;BME280;44936;52.086;5.150;2023-05-22T06:46:33;102163.03;;;16.24;100.00
36726;BME280;44936;52.086;5.150;2023-05-22T06:48:58;102169.22;;;16.29;100.00
36726;BME280;44936;52.086;5.150;2023-05-22T06:51:24;102164.78;;;16.34;100.00
36726;BME280;44936;52.086;5.150;2023-05-22T06:53:49;102173.63;;;16.33;100.00
36726;BME280;44936;52.086;5.150;2023-05-22T06:56:16;102183.34;;;16.32;100.00
36726;BME280;44936;52.086;5.150;2023-05-22T06:58:41;102186.88;;;16.39;100.00
36726;BME280;44936;52.086;5.150;2023-05-22T07:01:07;102196.56;;;16.43;100.00
36726;BME280;44936;52.086;5.150;2023-05-22T07:03:32;102192.19;;;16.47;100.00
36726;BME280;44936;52.086;5.150;2023-05-22T07:05:58;102190.41;;;16.52;100.00
36726;BME280;44936;52.086;5.150;2023-05-22T07:08:24;102192.19;;;16.56;100.00
36726;BME280;44936;52.086;5.150;2023-05-22T07:10:49;102200.13;;;16.66;100.00
36726;BME280;44936;52.086;5.150;2023-05-22T07:13:15;102204.56;;;16.72;100.00
36726;BME280;44936;52.086;5.150;2023-05-22T07:15:41;102201.03;;;16.75;100.00
36726;BME280;44936;52.086;5.150;2023-05-22T07:18:06;102212.50;;;16.89;100.00
36726;BME280;44936;52.086;5.150;2023-05-22T07:20:33;102201.03;;;16.88;100.00
36726;BME280;44936;52.086;5.150;2023-05-22T07:22:58;102211.63;;;16.90;100.00
36726;BME280;44936;52.086;5.150;2023-05-22T07:25:24;102231.00;;;17.04;100.00
36726;BME280;44936;52.086;5.150;2023-05-22T07:27:49;102196.56;;;17.04;100.00
36726;BME280;44936;52.086;5.150;2023-05-22T07:30:15;102216.00;;;17.15;100.00
36726;BME280;44936;52.086;5.150;2023-05-22T07:32:40;102220.38;;;17.21;100.00
36726;BME280;44936;52.086;5.150;2023-05-22T07:35:06;102230.09;;;17.30;100.00
36726;BME280;44936;52.086;5.150;2023-05-22T07:37:32;102217.72;;;17.32;100.00
36726;BME280;44936;52.086;5.150;2023-05-22T07:39:57;102200.06;;;17.24;100.00
36726;BME280;44936;52.086;5.150;2023-05-22T07:42:22;102202.69;;;17.32;100.00
36726;BME280;44936;52.086;5.150;2023-05-22T07:44:49;102234.47;;;17.46;100.00
36726;BME280;44936;52.086;5.150;2023-05-22T07:47:14;102210.63;;;17.41;100.00
36726;BME280;44936;52.086;5.150;2023-05-22T07:49:40;102226.47;;;17.55;100.00
36726;BME280;44936;52.086;5.150;2023-05-22T07:52:05;102223.78;;;17.63;100.00
36726;BME280;44936;52.086;5.150;2023-05-22T07:54:30;102219.34;;;17.69;100.00
36726;BME280;44936;52.086;5.150;2023-05-22T07:56:56;102231.72;;;17.73;100.00
36726;BME280;44936;52.086;5.150;2023-05-22T07:59:21;102229.94;;;17.81;100.00
36726;BME280;44936;52.086;5.150;2023-05-22T08:01:48;102224.59;;;17.86;100.00
36726;BME280;44936;52.086;5.150;2023-05-22T08:04:14;102208.72;;;17.78;100.00
36726;BME280;44936;52.086;5.150;2023-05-22T08:06:40;102227.16;;;18.00;100.00
36726;BME280;44936;52.086;5.150;2023-05-22T08:09:05;102235.16;;;17.98;100.00
36726;BME280;44936;52.086;5.150;2023-05-22T08:11:31;102245.72;;;18.06;100.00
36726;BME280;44936;52.086;5.150;2023-05-22T08:13:56;102235.09;;;18.09;100.00
36726;BME280;44936;52.086;5.150;2023-05-22T08:16:22;102246.53;;;18.22;100.00
36726;BME280;44936;52.086;5.150;2023-05-22T08:18:48;102242.06;;;18.25;100.00
36726;BME280;44936;52.086;5.150;2023-05-22T08:21:13;102244.66;;;18.39;100.00
36726;BME280;44936;52.086;5.150;2023-05-22T08:23:38;102253.44;;;18.46;100.00
36726;BME280;44936;52.086;5.150;2023-05-22T08:26:05;102258.63;;;18.61;100.00
36726;BME280;44936;52.086;5.150;2023-05-22T08:28:32;102240.03;;;18.67;100.00
36726;BME280;44936;52.086;5.150;2023-05-22T08:30:58;102242.53;;;18.85;100.00
36726;BME280;44936;52.086;5.150;2023-05-22T08:33:23;102233.59;;;18.92;100.00
36726;BME280;44936;52.086;5.150;2023-05-22T08:35:48;102244.06;;;19.09;100.00
36726;BME280;44936;52.086;5.150;2023-05-22T08:38:14;102256.34;;;19.22;100.00
36726;BME280;44936;52.086;5.150;2023-05-22T08:40:41;102257.97;;;19.37;100.00
36726;BME280;44936;52.086;5.150;2023-05-22T08:43:08;102256.06;;;19.48;100.00
36726;BME280;44936;52.086;5.150;2023-05-22T08:45:35;102252.38;;;19.60;100.00
36726;BME280;44936;52.086;5.150;2023-05-22T08:48:04;102254.22;;;19.57;100.00
36726;BME280;44936;52.086;5.150;2023-05-22T08:50:30;102265.63;;;19.68;100.00
36726;BME280;44936;52.086;5.150;2023-05-22T08:52:55;102248.69;;;19.73;100.00
36726;BME280;44936;52.086;5.150;2023-05-22T08:55:25;102253.88;;;19.84;100.00
36726;BME280;44936;52.086;5.150;2023-05-22T08:57:52;102260.88;;;19.93;100.00
36726;BME280;44936;52.086;5.150;2023-05-22T09:00:20;102253.69;;;19.99;100.00
36726;BME280;44936;52.086;5.150;2023-05-22T09:02:45;102258.13;;;19.99;100.00
36726;BME280;44936;52.086;5.150;2023-05-22T09:05:11;102240.38;;;19.96;100.00
36726;BME280;44936;52.086;5.150;2023-05-22T09:07:37;102271.19;;;20.17;100.00
36726;BME280;44936;52.086;5.150;2023-05-22T09:10:05;102262.38;;;20.12;100.00
36726;BME280;44936;52.086;5.150;2023-05-22T09:12:31;102268.69;;;20.06;100.00
36726;BME280;44936;52.086;5.150;2023-05-22T09:15:06;102281.72;;;20.26;100.00
36726;BME280;44936;52.086;5.150;2023-05-22T09:17:32;102275.31;;;20.38;100.00
36726;BME280;44936;52.086;5.150;2023-05-22T09:19:58;102274.22;;;20.54;100.00
36726;BME280;44936;52.086;5.150;2023-05-22T09:22:34;102260.81;;;20.57;100.00
36726;BME280;44936;52.086;5.150;2023-05-22T09:24:59;102246.59;;;20.60;100.00
36726;BME280;44936;52.086;5.150;2023-05-22T09:27:25;102269.50;;;20.72;100.00
36726;BME280;44936;52.086;5.150;2023-05-22T09:29:51;102265.06;;;20.71;100.00
36726;BME280;44936;52.086;5.150;2023-05-22T09:32:17;102230.63;;;20.58;100.00
36726;BME280;44936;52.086;5.150;2023-05-22T09:34:45;102255.09;;;20.82;100.00
36726;BME280;44936;52.086;5.150;2023-05-22T09:37:11;102272.75;;;20.89;100.00
36726;BME280;44936;52.086;5.150;2023-05-22T09:39:38;102274.50;;;20.91;100.00
36726;BME280;44936;52.086;5.150;2023-05-22T09:42:06;102270.97;;;20.89;100.00
36726;BME280;44936;52.086;5.150;2023-05-22T09:44:32;102267.94;;;20.58;100.00
36726;BME280;44936;52.086;5.150;2023-05-22T09:46:58;102283.59;;;20.80;100.00
36726;BME280;44936;52.086;5.150;2023-05-22T09:49:23;102291.50;;;20.86;100.00
36726;BME280;44936;52.086;5.150;2023-05-22T09:51:50;102277.25;;;20.87;100.00
36726;BME280;44936;52.086;5.150;2023-05-22T09:54:19;102273.31;;;21.08;100.00
36726;BME280;44936;52.086;5.150;2023-05-22T09:56:49;102267.97;;;21.08;100.00
36726;BME280;44936;52.086;5.150;2023-05-22T09:59:21;102271.13;;;21.33;100.00
36726;BME280;44936;52.086;5.150;2023-05-22T10:01:50;102274.44;;;21.44;100.00
36726;BME280;44936;52.086;5.150;2023-05-22T10:04:17;102249.41;;;21.51;100.00
36726;BME280;44936;52.086;5.150;2023-05-22T10:06:49;102247.06;;;21.34;100.00
36726;BME280;44936;52.086;5.150;2023-05-22T10:09:16;102211.25;;;21.44;100.00
36726;BME280;44936;52.086;5.150;2023-05-22T10:11:43;102245.34;;;21.75;100.00
36726;BME280;44936;52.086;5.150;2023-05-22T10:14:10;102227.16;;;21.92;100.00
36726;BME280;44936;52.086;5.150;2023-05-22T10:16:36;102238.63;;;21.97;100.00
36726;BME280;44936;52.086;5.150;2023-05-22T10:19:02;102274.63;;;22.21;100.00
36726;BME280;44936;52.086;5.150;2023-05-22T10:21:31;102207.44;;;21.98;100.00
36726;BME280;44936;52.086;5.150;2023-05-22T10:23:58;102229.34;;;22.15;100.00
36726;BME280;44936;52.086;5.150;2023-05-22T10:26:26;102245.72;;;22.00;100.00
36726;BME280;44936;52.086;5.150;2023-05-22T10:28:59;102231.81;;;21.84;100.00
36726;BME280;44936;52.086;5.150;2023-05-22T10:34:03;102246.53;;;21.60;100.00
36726;BME280;44936;52.086;5.150;2023-05-22T10:36:57;102229.94;;;21.88;100.00
36726;BME280;44936;52.086;5.150;2023-05-22T10:39:39;102240.81;;;21.78;100.00
36726;BME280;44936;52.086;5.150;2023-05-22T10:42:12;102227.28;;;21.86;100.00
36726;BME280;44936;52.086;5.150;2023-05-22T10:44:37;102246.44;;;21.66;100.00
36726;BME280;44936;52.086;5.150;2023-05-22T10:47:08;102227.06;;;21.55;100.00
36726;BME280;44936;52.086;5.150;2023-05-22T10:49:35;102236.75;;;21.61;100.00
36726;BME280;44936;52.086;5.150;2023-05-22T10:52:02;102239.56;;;21.53;100.00
36726;BME280;44936;52.086;5.150;2023-05-22T10:54:44;102249.88;;;21.27;100.00
36726;BME280;44936;52.086;5.150;2023-05-22T10:57:14;102240.25;;;21.63;100.00
36726;BME280;44936;52.086;5.150;2023-05-22T10:59:41;102217.28;;;21.96;100.00
36726;BME280;44936;52.086;5.150;2023-05-22T11:02:26;102202.84;;;22.04;100.00
36726;BME280;44936;52.086;5.150;2023-05-22T11:07:43;102207.25;;;22.05;100.00
36726;BME280;44936;52.086;5.150;2023-05-22T11:10:09;102198.91;;;21.82;100.00
36726;BME280;44936;52.086;5.150;2023-05-22T11:12:34;102195.03;;;21.95;100.00
36726;BME280;44936;52.086;5.150;2023-05-22T11:15:06;102196.63;;;22.04;100.00
36726;BME280;44936;52.086;5.150;2023-05-22T11:17:39;102177.63;;;22.18;100.00
36726;BME280;44936;52.086;5.150;2023-05-22T11:20:17;102160.19;;;22.39;100.00
36726;BME280;44936;52.086;5.150;2023-05-22T11:23:02;102149.16;;;22.15;100.00
36726;BME280;44936;52.086;5.150;2023-05-22T11:25:31;102170.03;;;21.98;100.00
36726;BME280;44936;52.086;5.150;2023-05-22T11:27:57;102175.06;;;22.13;100.00
36726;BME280;44936;52.086;5.150;2023-05-22T11:30:26;102161.47;;;22.22;100.00
36726;BME280;44936;52.086;5.150;2023-05-22T11:32:52;102204.13;;;22.27;100.00
36726;BME280;44936;52.086;5.150;2023-05-22T11:35:22;102166.94;;;22.18;100.00
36726;BME280;44936;52.086;5.150;2023-05-22T11:37:49;102190.25;;;22.11;100.00
36726;BME280;44936;52.086;5.150;2023-05-22T11:40:19;102182.38;;;22.03;100.00
36726;BME280;44936;52.086;5.150;2023-05-22T11:42:49;102150.59;;;22.30;100.00
36726;BME280;44936;52.086;5.150;2023-05-22T11:45:15;102146.91;;;22.36;100.00
36726;BME280;44936;52.086;5.150;2023-05-22T11:47:42;102153.13;;;22.34;100.00
36726;BME280;44936;52.086;5.150;2023-05-22T11:50:09;102187.09;;;22.31;100.00
36726;BME280;44936;52.086;5.150;2023-05-22T11:52:39;102149.13;;;22.18;100.00
36726;BME280;44936;52.086;5.150;2023-05-22T11:55:06;102191.44;;;22.37;100.00
36726;BME280;44936;52.086;5.150;2023-05-22T11:57:32;102204.16;;;22.25;100.00
36726;BME280;44936;52.086;5.150;2023-05-22T12:00:00;102215.88;;;22.20;100.00
36726;BME280;44936;52.086;5.150;2023-05-22T12:02:26;102231.34;;;22.04;100.00
36726;BME280;44936;52.086;5.150;2023-05-22T12:04:56;102214.13;;;22.17;100.00
36726;BME280;44936;52.086;5.150;2023-05-22T12:07:23;102220.13;;;22.28;100.00
36726;BME280;44936;52.086;5.150;2023-05-22T12:09:50;102196.28;;;22.19;100.00
36726;BME280;44936;52.086;5.150;2023-05-22T12:12:15;102185.44;;;22.25;100.00
36726;BME280;44936;52.086;5.150;2023-05-22T12:14:43;102179.22;;;22.25;100.00
36726;BME280;44936;52.086;5.150;2023-05-22T12:17:11;102138.44;;;22.18;100.00
36726;BME280;44936;52.086;5.150;2023-05-22T12:19:39;102198.28;;;22.47;100.00
36726;BME280;44936;52.086;5.150;2023-05-22T12:22:05;102172.59;;;22.41;100.00
36726;BME280;44936;52.086;5.150;2023-05-22T12:24:41;102205.81;;;22.67;100.00
36726;BME280;44936;52.086;5.150;2023-05-22T12:27:10;102195.00;;;22.71;100.00
36726;BME280;44936;52.086;5.150;2023-05-22T12:29:40;102147.06;;;22.96;100.00
36726;BME280;44936;52.086;5.150;2023-05-22T12:32:13;102140.72;;;23.00;100.00
36726;BME280;44936;52.086;5.150;2023-05-22T12:34:43;102101.97;;;23.15;100.00
36726;BME280;44936;52.086;5.150;2023-05-22T12:37:22;102128.47;;;23.24;100.00
36726;BME280;44936;52.086;5.150;2023-05-22T12:39:57;102136.88;;;23.10;100.00
36726;BME280;44936;52.086;5.150;2023-05-22T12:42:23;102068.91;;;23.16;100.00
36726;BME280;44936;52.086;5.150;2023-05-22T12:44:51;102077.44;;;23.29;100.00
36726;BME280;44936;52.086;5.150;2023-05-22T12:47:17;102053.34;;;23.29;100.00
36726;BME280;44936;52.086;5.150;2023-05-22T12:49:42;102042.34;;;23.38;100.00
36726;BME280;44936;52.086;5.150;2023-05-22T12:52:08;102066.34;;;23.41;100.00
36726;BME280;44936;52.086;5.150;2023-05-22T12:54:33;102107.69;;;23.32;100.00